createdAt,value
2023-05-14T00:00:41.107Z,5.70
2023-05-14T00:03:46.194Z,7.50
2023-05-14T00:06:51.274Z,6.03
2023-05-14T00:09:56.408Z,6.80
2023-05-14T00:13:03.366Z,5.95
2023-05-14T00:16:08.718Z,7.25
2023-05-14T00:19:13.834Z,9.35
2023-05-14T00:22:21.393Z,53.25
2023-05-14T00:25:26.589Z,8.98
2023-05-14T00:28:33.067Z,7.78
2023-05-14T00:31:38.198Z,6.03
2023-05-14T00:34:43.518Z,5.80
2023-05-14T00:37:49.426Z,8.80
2023-05-14T00:40:54.585Z,10.63
2023-05-14T00:44:01.192Z,6.05
2023-05-14T00:47:07.392Z,8.73
2023-05-14T00:50:14.535Z,6.32
2023-05-14T00:53:20.314Z,6.60
2023-05-14T00:56:26.770Z,7.03
2023-05-14T00:59:33.473Z,7.00
2023-05-14T01:02:38.557Z,6.13
2023-05-14T01:05:50.077Z,6.85
2023-05-14T01:09:00.928Z,6.82
2023-05-14T01:12:13.585Z,6.78
2023-05-14T01:15:23.222Z,10.65
2023-05-14T01:18:30.364Z,6.18
2023-05-14T01:21:40.944Z,9.82
2023-05-14T01:24:46.178Z,7.25
2023-05-14T01:27:56.708Z,7.85
2023-05-14T01:31:05.634Z,16.58
2023-05-14T01:34:14.358Z,8.77
2023-05-14T01:37:21.413Z,10.77
2023-05-14T01:40:27.229Z,6.18
2023-05-14T01:43:33.074Z,21.15
2023-05-14T01:46:38.358Z,6.53
2023-05-14T01:49:43.571Z,9.60
2023-05-14T01:52:51.304Z,6.95
2023-05-14T01:55:56.357Z,6.53
2023-05-14T01:59:01.384Z,6.55
2023-05-14T02:02:06.610Z,7.05
2023-05-14T02:05:13.951Z,6.03
2023-05-14T02:08:20.884Z,9.80
2023-05-14T02:11:26.568Z,6.53
2023-05-14T02:14:31.706Z,8.48
2023-05-14T02:17:36.961Z,7.30
2023-05-14T02:20:42.045Z,6.78
2023-05-14T02:23:49.755Z,6.90
2023-05-14T02:26:54.981Z,7.05
2023-05-14T02:30:00.936Z,6.22
2023-05-14T02:33:06.492Z,6.50
2023-05-14T02:36:11.576Z,6.85
2023-05-14T02:39:18.081Z,9.15
2023-05-14T02:42:24.566Z,6.88
2023-05-14T02:45:29.840Z,12.57
2023-05-14T02:48:34.929Z,6.30
2023-05-14T02:51:40.090Z,9.38
2023-05-14T02:54:46.545Z,6.82
2023-05-14T02:57:53.233Z,10.75
2023-05-14T03:00:58.576Z,6.30
2023-05-14T03:04:04.221Z,9.98
2023-05-14T03:07:09.258Z,8.32
2023-05-14T03:10:16.077Z,8.27
2023-05-14T03:13:21.380Z,6.35
2023-05-14T03:16:26.743Z,6.45
2023-05-14T03:19:33.269Z,7.32
2023-05-14T03:22:38.301Z,7.15
2023-05-14T03:25:44.935Z,9.07
2023-05-14T03:28:51.333Z,6.47
2023-05-14T03:31:56.492Z,7.68
2023-05-14T03:35:02.098Z,6.15
2023-05-14T03:38:07.545Z,11.23
2023-05-14T03:41:15.770Z,6.55
2023-05-14T03:44:21.066Z,6.82
2023-05-14T03:47:26.146Z,6.82
2023-05-14T03:50:31.620Z,8.10
2023-05-14T03:53:36.792Z,6.25
2023-05-14T03:56:43.272Z,6.13
2023-05-14T03:59:48.339Z,7.03
2023-05-14T04:02:53.552Z,9.02
2023-05-14T04:06:01.351Z,8.50
2023-05-14T04:09:06.398Z,6.78
2023-05-14T04:12:14.167Z,6.57
2023-05-14T04:15:19.453Z,5.90
2023-05-14T04:18:24.720Z,6.43
2023-05-14T04:21:30.385Z,6.30
2023-05-14T04:24:35.462Z,8.13
2023-05-14T04:27:42.430Z,9.65
2023-05-14T04:30:47.610Z,6.32
2023-05-14T04:33:52.547Z,8.73
2023-05-14T04:36:57.587Z,6.63
2023-05-14T04:40:02.585Z,6.97
2023-05-14T04:43:09.333Z,6.28
2023-05-14T04:46:15.560Z,6.93
2023-05-14T04:49:20.931Z,9.48
2023-05-14T04:52:26.053Z,7.07
2023-05-14T04:55:31.541Z,7.22
2023-05-14T04:58:37.982Z,7.85
2023-05-14T05:01:43.147Z,9.40
2023-05-14T05:04:48.340Z,6.53
2023-05-14T05:07:53.563Z,11.60
2023-05-14T05:10:58.578Z,6.43
2023-05-14T05:14:05.021Z,6.43
2023-05-14T05:17:10.084Z,6.22
2023-05-14T05:20:15.554Z,6.53
2023-05-14T05:23:21.033Z,7.32
2023-05-14T05:26:28.117Z,8.00
2023-05-14T05:29:36.443Z,6.07
2023-05-14T05:32:41.619Z,5.80
2023-05-14T05:35:48.260Z,7.57
2023-05-14T05:38:53.302Z,7.25
2023-05-14T05:41:58.299Z,8.68
2023-05-14T05:45:05.183Z,5.70
2023-05-14T05:48:17.462Z,5.55
2023-05-14T05:51:41.326Z,6.32
2023-05-14T05:54:46.447Z,5.35
2023-05-14T05:57:51.672Z,5.05
2023-05-14T06:00:58.448Z,4.30
2023-05-14T06:04:04.543Z,5.88
2023-05-14T06:07:12.502Z,8.05
2023-05-14T06:10:17.684Z,5.00
2023-05-14T06:13:22.727Z,4.80
2023-05-14T06:16:29.234Z,5.88
2023-05-14T06:19:34.319Z,5.60
2023-05-14T06:22:39.547Z,9.10
2023-05-14T06:25:45.084Z,4.78
2023-05-14T06:28:50.147Z,6.20
2023-05-14T06:32:04.018Z,7.88
2023-05-14T06:35:10.525Z,4.85
2023-05-14T06:38:15.575Z,5.35
2023-05-14T06:41:21.274Z,5.50
2023-05-14T06:44:26.406Z,4.30
2023-05-14T06:47:33.490Z,4.72
2023-05-14T06:50:38.602Z,4.90
2023-05-14T06:53:43.719Z,10.05
2023-05-14T06:56:49.126Z,7.85
2023-05-14T06:59:54.335Z,4.43
2023-05-14T07:03:00.823Z,4.88
2023-05-14T07:06:06.760Z,8.63
2023-05-14T07:09:11.916Z,3.92
2023-05-14T07:12:17.101Z,8.05
2023-05-14T07:15:22.166Z,3.88
2023-05-14T07:18:28.899Z,4.57
2023-05-14T07:21:33.927Z,7.03
2023-05-14T07:24:39.147Z,4.13
2023-05-14T07:27:44.499Z,5.70
2023-05-14T07:30:49.574Z,5.28
2023-05-14T07:33:55.971Z,5.65
2023-05-14T07:37:01.994Z,5.30
2023-05-14T07:40:08.126Z,4.20
2023-05-14T07:43:13.810Z,6.00
2023-05-14T07:46:18.897Z,4.75
2023-05-14T07:49:25.480Z,6.45
2023-05-14T07:52:30.659Z,3.97
2023-05-14T07:55:35.689Z,4.30
2023-05-14T07:58:41.248Z,5.78
2023-05-14T08:01:47.036Z,5.00
2023-05-14T08:04:53.654Z,4.32
2023-05-14T08:07:58.883Z,3.95
2023-05-14T08:11:04.410Z,4.28
2023-05-14T08:14:09.609Z,4.40
2023-05-14T08:17:14.677Z,4.45
2023-05-14T08:20:21.598Z,3.80
2023-05-14T08:23:26.824Z,4.20
2023-05-14T08:26:31.926Z,3.65
2023-05-14T08:29:37.051Z,7.30
2023-05-14T08:32:42.526Z,4.25
2023-05-14T08:35:49.121Z,7.03
2023-05-14T08:38:54.324Z,4.55
2023-05-14T08:42:00.068Z,4.38
2023-05-14T08:45:06.850Z,4.07
2023-05-14T08:48:15.947Z,4.50
2023-05-14T08:51:22.595Z,7.43
2023-05-14T08:54:35.830Z,3.70
2023-05-14T08:57:45.626Z,4.75
2023-05-14T09:00:52.224Z,4.40
2023-05-14T09:03:57.429Z,4.18
2023-05-14T09:07:04.649Z,4.97
2023-05-14T09:10:10.620Z,3.72
2023-05-14T09:13:15.853Z,5.10
2023-05-14T09:16:21.250Z,4.25
2023-05-14T09:19:26.537Z,5.88
2023-05-14T09:22:33.366Z,3.85
2023-05-14T09:25:38.516Z,5.72
2023-05-14T09:28:43.943Z,3.75
2023-05-14T09:31:52.798Z,13.85
2023-05-14T09:34:58.757Z,4.78
2023-05-14T09:38:05.312Z,8.40
2023-05-14T09:41:10.952Z,6.68
2023-05-14T09:44:16.304Z,5.80
2023-05-14T09:47:21.547Z,7.35
2023-05-14T09:50:26.940Z,4.28
2023-05-14T09:53:35.687Z,4.20
2023-05-14T09:56:40.927Z,3.60
2023-05-14T09:59:46.173Z,4.05
2023-05-14T10:02:53.380Z,4.78
2023-05-14T10:06:06.088Z,3.60
2023-05-14T10:09:14.752Z,3.67
2023-05-14T10:12:22.659Z,4.85
2023-05-14T10:15:33.480Z,5.95
2023-05-14T10:18:42.910Z,3.00
2023-05-14T10:21:50.150Z,7.93
2023-05-14T10:24:58.015Z,3.00
2023-05-14T10:28:03.340Z,2.67
2023-05-14T10:31:11.697Z,2.80
2023-05-14T10:34:37.698Z,4.15
2023-05-14T10:37:42.931Z,4.47
2023-05-14T10:40:51.529Z,2.83
2023-05-14T10:43:59.776Z,12.30
2023-05-14T10:47:05.538Z,9.13
2023-05-14T10:50:14.186Z,3.10
2023-05-14T10:53:19.497Z,4.30
2023-05-14T10:56:26.685Z,6.50
2023-05-14T10:59:31.968Z,3.63
2023-05-14T11:02:38.229Z,6.50
2023-05-14T11:05:43.586Z,3.15
2023-05-14T11:08:48.714Z,5.90
2023-05-14T11:11:55.704Z,5.32
2023-05-14T11:15:02.284Z,3.35
2023-05-14T11:18:07.467Z,3.67
2023-05-14T11:21:13.175Z,4.88
2023-05-14T11:24:18.641Z,2.67
2023-05-14T11:27:25.257Z,7.68
2023-05-14T11:30:30.320Z,10.10
2023-05-14T11:33:35.446Z,7.50
2023-05-14T11:36:40.670Z,4.50
2023-05-14T11:39:50.109Z,3.80
2023-05-14T11:42:56.757Z,3.63
2023-05-14T11:46:01.994Z,3.47
2023-05-14T11:49:07.893Z,3.25
2023-05-14T11:52:15.140Z,4.18
2023-05-14T11:55:21.049Z,5.95
2023-05-14T11:58:27.812Z,4.13
2023-05-14T12:01:37.974Z,4.55
2023-05-14T12:04:43.862Z,8.90
2023-05-14T12:07:49.623Z,3.40
2023-05-14T12:10:55.533Z,2.97
2023-05-14T12:14:02.389Z,7.22
2023-05-14T12:17:16.226Z,7.00
2023-05-14T12:20:21.515Z,3.40
2023-05-14T12:23:30.446Z,19.27
2023-05-14T12:26:35.888Z,4.47
2023-05-14T12:29:42.413Z,7.00
2023-05-14T12:32:49.092Z,9.38
2023-05-14T12:35:58.923Z,3.50
2023-05-14T12:39:06.487Z,3.47
2023-05-14T12:42:13.361Z,6.45
2023-05-14T12:45:19.964Z,4.03
2023-05-14T12:48:26.182Z,3.00
2023-05-14T12:51:31.280Z,2.92
2023-05-14T12:54:36.411Z,7.97
2023-05-14T12:57:41.554Z,2.70
2023-05-14T13:00:48.145Z,4.97
2023-05-14T13:03:53.384Z,17.00
2023-05-14T13:06:58.546Z,3.40
2023-05-14T13:10:05.605Z,3.38
2023-05-14T13:13:11.575Z,9.07
2023-05-14T13:16:18.073Z,4.35
2023-05-14T13:19:23.175Z,3.25
2023-05-14T13:22:28.200Z,7.20
2023-05-14T13:25:34.582Z,2.70
2023-05-14T13:28:39.704Z,9.20
2023-05-14T13:31:46.261Z,5.40
2023-05-14T13:34:51.345Z,2.75
2023-05-14T13:37:56.498Z,3.05
2023-05-14T13:41:03.234Z,3.17
2023-05-14T13:44:08.392Z,6.20
2023-05-14T13:47:15.009Z,2.80
2023-05-14T13:50:21.924Z,3.53
2023-05-14T13:53:27.484Z,2.92
2023-05-14T13:56:32.533Z,5.43
2023-05-14T13:59:37.693Z,3.50
2023-05-14T14:02:44.179Z,6.35
2023-05-14T14:05:52.725Z,3.03
2023-05-14T14:08:58.970Z,6.82
2023-05-14T14:12:05.394Z,3.20
2023-05-14T14:15:13.029Z,7.72
2023-05-14T14:18:19.586Z,6.88
2023-05-14T14:21:24.660Z,9.50
2023-05-14T14:24:29.836Z,10.32
2023-05-14T14:27:38.510Z,4.88
2023-05-14T14:30:43.912Z,6.30
2023-05-14T14:33:50.394Z,6.22
2023-05-14T14:36:55.598Z,5.30
2023-05-14T14:40:00.836Z,7.07
2023-05-14T14:43:06.280Z,3.75
2023-05-14T14:46:12.921Z,2.88
2023-05-14T14:49:19.520Z,3.00
2023-05-14T14:52:24.690Z,2.95
2023-05-14T14:55:29.766Z,2.65
2023-05-14T14:58:34.993Z,7.38
2023-05-14T15:01:40.267Z,6.60
2023-05-14T15:04:46.843Z,3.22
2023-05-14T15:07:52.233Z,6.72
2023-05-14T15:10:57.999Z,3.30
2023-05-14T15:14:03.282Z,3.20
2023-05-14T15:17:08.937Z,5.07
2023-05-14T15:20:16.615Z,6.53
2023-05-14T15:23:21.682Z,3.38
2023-05-14T15:26:27.138Z,7.35
2023-05-14T15:29:33.067Z,5.25
2023-05-14T15:32:38.244Z,5.22
2023-05-14T15:35:44.747Z,4.13
2023-05-14T15:38:49.918Z,3.08
2023-05-14T15:41:55.150Z,5.78
2023-05-14T15:45:00.214Z,6.70
2023-05-14T15:48:05.562Z,5.72
2023-05-14T15:51:12.034Z,4.93
2023-05-14T15:54:17.224Z,7.60
2023-05-14T15:57:22.378Z,3.03
2023-05-14T16:00:27.583Z,3.53
2023-05-14T16:03:32.692Z,6.75
2023-05-14T16:06:41.954Z,3.40
2023-05-14T16:09:47.130Z,8.77
2023-05-14T16:12:52.228Z,5.70
2023-05-14T16:15:57.500Z,8.27
2023-05-14T16:19:02.649Z,6.68
2023-05-14T16:22:09.143Z,3.25
2023-05-14T16:25:14.480Z,2.85
2023-05-14T16:28:19.570Z,6.70
2023-05-14T16:31:24.809Z,7.63
2023-05-14T16:34:29.964Z,8.13
2023-05-14T16:37:36.601Z,3.20
2023-05-14T16:40:41.876Z,2.72
2023-05-14T16:43:47.005Z,2.83
2023-05-14T16:46:52.346Z,3.45
2023-05-14T16:49:57.638Z,5.80
2023-05-14T16:53:04.036Z,5.32
2023-05-14T16:56:09.440Z,10.20
2023-05-14T16:59:16.057Z,8.45
2023-05-14T17:02:21.198Z,5.45
2023-05-14T17:05:26.367Z,4.80
2023-05-14T17:08:35.599Z,5.90
2023-05-14T17:11:41.021Z,3.00
2023-05-14T17:14:46.073Z,2.80
2023-05-14T17:17:51.170Z,3.55
2023-05-14T17:20:56.412Z,3.95
2023-05-14T17:24:02.940Z,3.17
2023-05-14T17:27:08.455Z,4.40
2023-05-14T17:30:14.068Z,3.38
2023-05-14T17:33:19.635Z,3.35
2023-05-14T17:36:25.079Z,3.15
2023-05-14T17:39:31.642Z,3.10
2023-05-14T17:42:36.835Z,3.05
2023-05-14T17:45:53.201Z,6.72
2023-05-14T17:48:59.802Z,6.93
2023-05-14T17:52:05.451Z,4.03
2023-05-14T17:55:13.824Z,3.90
2023-05-14T17:58:19.020Z,5.88
2023-05-14T18:01:24.820Z,5.53
2023-05-14T18:04:29.748Z,4.00
2023-05-14T18:07:34.835Z,8.52
2023-05-14T18:10:41.410Z,5.15
2023-05-14T18:13:46.742Z,6.13
2023-05-14T18:16:51.707Z,4.88
2023-05-14T18:19:56.826Z,3.65
2023-05-14T18:23:02.215Z,4.20
2023-05-14T18:26:08.820Z,4.78
2023-05-14T18:29:13.983Z,5.38
2023-05-14T18:32:19.076Z,5.05
2023-05-14T18:35:24.377Z,7.43
2023-05-14T18:38:29.635Z,4.07
2023-05-14T18:41:36.130Z,3.90
2023-05-14T18:44:44.258Z,3.10
2023-05-14T18:47:49.559Z,4.43
2023-05-14T18:50:54.961Z,7.70
2023-05-14T18:54:00.258Z,8.82
2023-05-14T18:57:07.178Z,3.47
2023-05-14T19:00:15.101Z,3.40
2023-05-14T19:03:21.192Z,12.90
2023-05-14T19:06:26.468Z,12.73
2023-05-14T19:09:38.715Z,5.47
2023-05-14T19:12:45.481Z,10.35
2023-05-14T19:15:54.513Z,4.85
2023-05-14T19:18:59.981Z,9.02
2023-05-14T19:22:05.348Z,4.35
2023-05-14T19:25:12.959Z,10.63
2023-05-14T19:28:20.012Z,10.40
2023-05-14T19:31:26.844Z,15.27
2023-05-14T19:34:33.974Z,12.30
2023-05-14T19:37:40.148Z,5.80
2023-05-14T19:40:45.352Z,3.72
2023-05-14T19:43:51.820Z,8.43
2023-05-14T19:46:57.027Z,3.88
2023-05-14T19:50:02.204Z,5.88
2023-05-14T19:53:07.940Z,3.88
2023-05-14T19:56:15.639Z,6.57
2023-05-14T19:59:22.086Z,6.57
2023-05-14T20:02:27.359Z,6.22
2023-05-14T20:05:34.358Z,6.90
2023-05-14T20:08:39.963Z,7.53
2023-05-14T20:11:45.173Z,4.03
2023-05-14T20:14:51.975Z,7.25
2023-05-14T20:17:57.397Z,6.03
2023-05-14T20:21:02.719Z,12.80
2023-05-14T20:24:08.246Z,10.80
2023-05-14T20:27:13.728Z,9.93
2023-05-14T20:30:20.867Z,24.15
2023-05-14T20:33:26.274Z,47.60
2023-05-14T20:36:32.021Z,33.83
2023-05-14T20:39:37.464Z,35.55
2023-05-14T20:42:42.764Z,33.22
2023-05-14T20:45:49.274Z,10.32
2023-05-14T20:48:56.385Z,23.23
2023-05-14T20:52:01.592Z,27.00
2023-05-14T20:55:07.781Z,31.58
2023-05-14T20:58:13.319Z,16.35
2023-05-14T21:01:20.029Z,12.68
2023-05-14T21:04:25.416Z,10.05
2023-05-14T21:07:30.417Z,4.07
2023-05-14T21:10:35.483Z,28.17
2023-05-14T21:13:40.854Z,16.17
2023-05-14T21:16:47.700Z,19.30
2023-05-14T21:19:53.145Z,6.25
2023-05-14T21:22:58.637Z,4.20
2023-05-14T21:26:03.857Z,8.48
2023-05-14T21:29:09.146Z,13.80
2023-05-14T21:32:16.373Z,16.70
2023-05-14T21:35:21.565Z,13.85
2023-05-14T21:38:27.051Z,24.08
2023-05-14T21:41:32.917Z,89.30
2023-05-14T21:44:38.142Z,66.53
2023-05-14T21:47:44.781Z,44.80
2023-05-14T21:50:50.065Z,44.65
2023-05-14T21:53:55.321Z,21.85
2023-05-14T21:57:01.947Z,16.50
2023-05-14T22:00:12.452Z,15.73
2023-05-14T22:03:21.924Z,13.60
2023-05-14T22:06:27.617Z,11.20
2023-05-14T22:09:32.705Z,35.50
2023-05-14T22:12:37.813Z,19.27
2023-05-14T22:15:43.078Z,23.42
2023-05-14T22:18:49.673Z,29.52
2023-05-14T22:21:54.767Z,19.23
2023-05-14T22:24:59.765Z,21.65
2023-05-14T22:28:04.677Z,11.25
2023-05-14T22:31:10.053Z,7.32
2023-05-14T22:34:16.535Z,5.63
2023-05-14T22:37:21.933Z,8.23
2023-05-14T22:40:27.237Z,4.05
2023-05-14T22:43:32.425Z,3.72
2023-05-14T22:52:29.400Z,7.30
2023-05-14T22:56:07.320Z,49.83
2023-05-14T22:59:12.649Z,44.95
2023-05-14T23:02:17.719Z,52.35
2023-05-14T23:05:23.111Z,58.72
2023-05-14T23:08:28.296Z,47.78
2023-05-14T23:11:34.792Z,33.92
2023-05-14T23:14:39.882Z,13.73
2023-05-14T23:17:45.144Z,43.53
2023-05-14T23:20:50.316Z,51.55
2023-05-14T23:23:55.459Z,27.00
2023-05-14T23:27:01.936Z,55.25
2023-05-14T23:30:08.086Z,35.97
2023-05-14T23:33:13.570Z,20.48
2023-05-14T23:36:18.754Z,20.75
2023-05-14T23:39:23.838Z,16.67
2023-05-14T23:42:30.358Z,11.05
2023-05-14T23:45:35.642Z,6.68
2023-05-14T23:48:40.704Z,9.55
2023-05-14T23:51:45.699Z,20.40
2023-05-14T23:54:50.862Z,10.40
2023-05-14T23:57:57.323Z,14.40
